»·PEaware :: TEXAN88 KGEG-KSEA

TEXAN88 :: KGEG-KSEA

FLIGHT INFORMATION

Flight Status: Arrived
Operator: Unknown
More flights by this operator :: More flights under this callsign
Pilot: Indie I. (23390)
Aircraft: BEECH AIRCRAFT T-6A TEXAN
(TEX2)
More flights by this aircraft type
Origin: KGEG Spokane Intl
United States
Destination: KSEA Seattle-Tacoma Intl
United States
More flights between these airports :: More routes between these airports
Route: GEG GLASR1
File this flight plan on PilotEdge
Remarks:
Altitude:
(Current/Filed)
18,000ft
Speed:
(Current/Filed)
250kts
Departed: 10-Feb-21 01:03 PM
Arrived: 10-Feb-21 01:52 PM
Distance/Time
Traveled:
194nm/0:48
Distance/Time
To Go:
Arrived

Flight Plot

Page will automatically refresh every two minutes.

Flight plan parsing failed; only flown route is shown


Map Options




Map Legend


Flown Route
Filed Route
Departure Airport
Arrival Airport
Navaid (VOR, NDB)
Fix

Horizontal Profiles

Position Reports

Time Latitude Longitude Heading Altitude Ground
Speed
10-Feb-21 12:54 47.620677 -117.527612 284 2388ft 0kts
10-Feb-21 12:55 47.620677 -117.527614 284 2388ft 0kts
10-Feb-21 12:56 47.620677 -117.527616 284 2388ft 0kts
10-Feb-21 12:57 47.620678 -117.527618 284 2388ft 0kts
10-Feb-21 12:58 47.621811 -117.528789 37 2388ft 9kts
10-Feb-21 12:58 47.624200 -117.525275 46 2388ft 21kts
10-Feb-21 13:00 47.630138 -117.517148 325 2388ft 11kts
10-Feb-21 13:01 47.630414 -117.517548 321 2388ft 0kts
10-Feb-21 13:01 47.630552 -117.519266 225 2388ft 12kts
10-Feb-21 13:03 47.602275 -117.561799 223 4027ft 163kts
10-Feb-21 13:03 47.574192 -117.605011 230 6107ft 179kts
10-Feb-21 13:04 47.556079 -117.668122 294 8600ft 187kts
10-Feb-21 13:06 47.575087 -117.752835 278 11578ft 185kts
10-Feb-21 13:06 47.580287 -117.816727 274 13422ft 190kts
10-Feb-21 13:07 47.589846 -117.895077 283 15441ft 196kts
10-Feb-21 13:08 47.596068 -117.977734 283 17138ft 208kts
10-Feb-21 13:09 47.606759 -118.062780 260 18502ft 220kts
10-Feb-21 13:10 47.614542 -118.167257 277 17873ft 282kts
10-Feb-21 13:11 47.624331 -118.284663 274 18087ft 286kts
10-Feb-21 13:12 47.633324 -118.404154 280 18058ft 296kts
10-Feb-21 13:13 47.644117 -118.524763 272 18195ft 293kts
10-Feb-21 13:14 47.656827 -118.646056 281 18135ft 295kts
10-Feb-21 13:15 47.671078 -118.767229 276 18067ft 297kts
10-Feb-21 13:16 47.681121 -118.889264 276 18046ft 298kts
10-Feb-21 13:17 47.692859 -119.011090 278 18035ft 299kts
10-Feb-21 13:18 47.706704 -119.132760 279 18043ft 297kts
10-Feb-21 13:19 47.717056 -119.254748 276 18112ft 295kts
10-Feb-21 13:20 47.725533 -119.377018 276 18220ft 292kts
10-Feb-21 13:21 47.733669 -119.499489 277 18046ft 299kts
10-Feb-21 13:22 47.746487 -119.620418 270 18120ft 298kts
10-Feb-21 13:23 47.748714 -119.743727 275 17935ft 301kts
10-Feb-21 13:24 47.761825 -119.865595 281 18046ft 297kts
10-Feb-21 13:25 47.775812 -119.986762 278 18007ft 299kts
10-Feb-21 13:26 47.782529 -120.109870 266 18096ft 293kts
10-Feb-21 13:27 47.776029 -120.232629 264 17986ft 298kts
10-Feb-21 13:28 47.785081 -120.354972 281 17511ft 308kts
10-Feb-21 13:29 47.805717 -120.480843 283 16709ft 317kts
10-Feb-21 13:30 47.823114 -120.611594 282 15329ft 327kts
10-Feb-21 13:31 47.843191 -120.744022 282 13737ft 330kts
10-Feb-21 13:32 47.840480 -120.878699 265 12167ft 319kts
10-Feb-21 13:33 47.835895 -121.008929 267 11086ft 312kts
10-Feb-21 13:34 47.838651 -121.137130 277 10120ft 306kts
10-Feb-21 13:35 47.853537 -121.257832 282 9965ft 294kts
10-Feb-21 13:36 47.873662 -121.373826 279 9997ft 289kts
10-Feb-21 13:37 47.878898 -121.492527 264 9958ft 289kts
10-Feb-21 13:38 47.872124 -121.612130 265 9500ft 301kts
10-Feb-21 13:39 47.865986 -121.739269 266 8102ft 301kts
10-Feb-21 13:40 47.857584 -121.863454 254 6376ft 318kts
10-Feb-21 13:41 47.837962 -121.982474 257 6038ft 283kts
10-Feb-21 13:42 47.811636 -122.094430 246 5063ft 293kts
10-Feb-21 13:43 47.778492 -122.200553 233 5137ft 273kts
10-Feb-21 13:44 47.708184 -122.255093 206 4065ft 281kts
10-Feb-21 13:45 47.639038 -122.304893 195 3848ft 280kts
10-Feb-21 13:46 47.578011 -122.307548 180 2544ft 155kts
10-Feb-21 13:47 47.543429 -122.306706 180 1985ft 119kts
10-Feb-21 13:48 47.511993 -122.307349 186 1427ft 119kts
10-Feb-21 13:49 47.479716 -122.307408 180 773ft 112kts
10-Feb-21 13:50 47.452924 -122.307884 177 436ft 57kts
10-Feb-21 13:51 47.449617 -122.306040 112 436ft 5kts

Navigation Log

Ident Type
Flight plan parsing failed, navigation log unavailable